sensor_id;sensor_type;location;lat;lon;timestamp;P1;durP1;ratioP1;P2;durP2;ratioP2
58240;SDS011;45058;55.772;38.224;2022-10-26T00:02:17;27.20;;;14.90;;
58240;SDS011;45058;55.772;38.224;2022-10-26T00:04:43;22.63;;;16.17;;
58240;SDS011;45058;55.772;38.224;2022-10-26T00:07:09;24.97;;;15.83;;
58240;SDS011;45058;55.772;38.224;2022-10-26T00:09:35;24.67;;;16.07;;
58240;SDS011;45058;55.772;38.224;2022-10-26T00:12:02;19.50;;;14.30;;
58240;SDS011;45058;55.772;38.224;2022-10-26T00:14:28;22.77;;;14.60;;
58240;SDS011;45058;55.772;38.224;2022-10-26T00:16:54;19.70;;;14.80;;
58240;SDS011;45058;55.772;38.224;2022-10-26T00:19:20;21.10;;;14.57;;
58240;SDS011;45058;55.772;38.224;2022-10-26T00:21:46;19.70;;;13.73;;
58240;SDS011;45058;55.772;38.224;2022-10-26T00:24:12;21.00;;;14.20;;
58240;SDS011;45058;55.772;38.224;2022-10-26T00:26:38;22.70;;;12.73;;
58240;SDS011;45058;55.772;38.224;2022-10-26T00:29:05;17.63;;;12.83;;
58240;SDS011;45058;55.772;38.224;2022-10-26T00:31:31;18.90;;;13.57;;
58240;SDS011;45058;55.772;38.224;2022-10-26T00:33:57;18.40;;;13.30;;
58240;SDS011;45058;55.772;38.224;2022-10-26T00:36:23;22.27;;;14.63;;
58240;SDS011;45058;55.772;38.224;2022-10-26T00:38:51;20.37;;;12.10;;
58240;SDS011;45058;55.772;38.224;2022-10-26T00:41:20;18.60;;;12.03;;
58240;SDS011;45058;55.772;38.224;2022-10-26T00:43:50;19.13;;;12.13;;
58240;SDS011;45058;55.772;38.224;2022-10-26T00:48:56;17.13;;;11.60;;
58240;SDS011;45058;55.772;38.224;2022-10-26T00:51:28;18.10;;;11.07;;
58240;SDS011;45058;55.772;38.224;2022-10-26T00:54:00;15.40;;;11.27;;
58240;SDS011;45058;55.772;38.224;2022-10-26T00:56:29;17.10;;;10.90;;
58240;SDS011;45058;55.772;38.224;2022-10-26T00:58:56;18.70;;;10.80;;
58240;SDS011;45058;55.772;38.224;2022-10-26T01:01:26;14.27;;;9.60;;
58240;SDS011;45058;55.772;38.224;2022-10-26T01:03:52;19.93;;;10.37;;
58240;SDS011;45058;55.772;38.224;2022-10-26T01:06:18;16.13;;;10.10;;
58240;SDS011;45058;55.772;38.224;2022-10-26T01:08:44;16.43;;;10.53;;
58240;SDS011;45058;55.772;38.224;2022-10-26T01:11:10;15.73;;;10.17;;
58240;SDS011;45058;55.772;38.224;2022-10-26T01:13:36;14.67;;;9.30;;
58240;SDS011;45058;55.772;38.224;2022-10-26T01:18:46;16.53;;;11.03;;
58240;SDS011;45058;55.772;38.224;2022-10-26T01:21:26;15.73;;;10.73;;
58240;SDS011;45058;55.772;38.224;2022-10-26T01:32:26;28.17;;;14.63;;
58240;SDS011;45058;55.772;38.224;2022-10-26T01:35:15;21.45;;;15.32;;
58240;SDS011;45058;55.772;38.224;2022-10-26T01:37:53;23.03;;;15.80;;
58240;SDS011;45058;55.772;38.224;2022-10-26T01:40:41;24.97;;;16.93;;
58240;SDS011;45058;55.772;38.224;2022-10-26T01:43:14;26.43;;;18.23;;
58240;SDS011;45058;55.772;38.224;2022-10-26T01:45:42;29.27;;;19.43;;
58240;SDS011;45058;55.772;38.224;2022-10-26T01:48:11;26.30;;;19.27;;
58240;SDS011;45058;55.772;38.224;2022-10-26T01:50:39;29.57;;;19.23;;
58240;SDS011;45058;55.772;38.224;2022-10-26T01:53:06;28.87;;;18.47;;
58240;SDS011;45058;55.772;38.224;2022-10-26T01:55:47;25.80;;;18.13;;
58240;SDS011;45058;55.772;38.224;2022-10-26T02:01:02;26.47;;;17.20;;
58240;SDS011;45058;55.772;38.224;2022-10-26T02:03:40;24.03;;;16.53;;
58240;SDS011;45058;55.772;38.224;2022-10-26T02:06:18;19.23;;;13.43;;
58240;SDS011;45058;55.772;38.224;2022-10-26T02:09:16;19.77;;;13.40;;
58240;SDS011;45058;55.772;38.224;2022-10-26T02:11:42;18.40;;;12.18;;
58240;SDS011;45058;55.772;38.224;2022-10-26T02:16:52;17.13;;;10.03;;
58240;SDS011;45058;55.772;38.224;2022-10-26T02:21:51;12.83;;;8.83;;
58240;SDS011;45058;55.772;38.224;2022-10-26T02:24:19;13.77;;;8.33;;
58240;SDS011;45058;55.772;38.224;2022-10-26T02:26:46;12.87;;;6.97;;
58240;SDS011;45058;55.772;38.224;2022-10-26T02:29:16;13.43;;;7.10;;
58240;SDS011;45058;55.772;38.224;2022-10-26T02:31:42;11.63;;;7.10;;
58240;SDS011;45058;55.772;38.224;2022-10-26T02:34:11;13.80;;;7.20;;
58240;SDS011;45058;55.772;38.224;2022-10-26T02:36:40;9.03;;;6.77;;
58240;SDS011;45058;55.772;38.224;2022-10-26T02:39:08;10.97;;;7.10;;
58240;SDS011;45058;55.772;38.224;2022-10-26T02:41:35;13.03;;;6.87;;
58240;SDS011;45058;55.772;38.224;2022-10-26T02:44:23;10.60;;;6.23;;
58240;SDS011;45058;55.772;38.224;2022-10-26T02:46:49;10.63;;;6.30;;
58240;SDS011;45058;55.772;38.224;2022-10-26T02:49:15;9.40;;;6.33;;
58240;SDS011;45058;55.772;38.224;2022-10-26T02:51:44;11.37;;;6.20;;
58240;SDS011;45058;55.772;38.224;2022-10-26T02:57:09;10.30;;;5.33;;
58240;SDS011;45058;55.772;38.224;2022-10-26T02:59:39;10.73;;;5.77;;
58240;SDS011;45058;55.772;38.224;2022-10-26T03:02:07;10.40;;;5.87;;
58240;SDS011;45058;55.772;38.224;2022-10-26T03:04:33;10.20;;;5.63;;
58240;SDS011;45058;55.772;38.224;2022-10-26T03:06:59;8.60;;;5.40;;
58240;SDS011;45058;55.772;38.224;2022-10-26T03:09:26;11.57;;;5.77;;
58240;SDS011;45058;55.772;38.224;2022-10-26T03:11:52;7.87;;;5.03;;
58240;SDS011;45058;55.772;38.224;2022-10-26T03:14:18;9.20;;;5.53;;
58240;SDS011;45058;55.772;38.224;2022-10-26T03:16:45;8.33;;;4.73;;
58240;SDS011;45058;55.772;38.224;2022-10-26T03:19:11;10.07;;;5.53;;
58240;SDS011;45058;55.772;38.224;2022-10-26T03:21:37;10.07;;;5.57;;
58240;SDS011;45058;55.772;38.224;2022-10-26T03:24:02;9.63;;;5.70;;
58240;SDS011;45058;55.772;38.224;2022-10-26T03:26:28;10.47;;;5.30;;
58240;SDS011;45058;55.772;38.224;2022-10-26T03:28:54;12.63;;;5.90;;
58240;SDS011;45058;55.772;38.224;2022-10-26T03:31:20;8.83;;;5.67;;
58240;SDS011;45058;55.772;38.224;2022-10-26T03:33:46;10.87;;;7.33;;
58240;SDS011;45058;55.772;38.224;2022-10-26T03:36:12;10.40;;;6.57;;
58240;SDS011;45058;55.772;38.224;2022-10-26T03:38:38;12.87;;;6.90;;
58240;SDS011;45058;55.772;38.224;2022-10-26T03:41:04;10.07;;;6.73;;
58240;SDS011;45058;55.772;38.224;2022-10-26T03:43:30;12.03;;;6.50;;
58240;SDS011;45058;55.772;38.224;2022-10-26T03:45:56;10.47;;;6.73;;
58240;SDS011;45058;55.772;38.224;2022-10-26T03:48:21;11.83;;;7.73;;
58240;SDS011;45058;55.772;38.224;2022-10-26T03:50:47;16.10;;;7.97;;
58240;SDS011;45058;55.772;38.224;2022-10-26T03:53:13;12.90;;;7.37;;
58240;SDS011;45058;55.772;38.224;2022-10-26T03:55:42;12.70;;;7.60;;
58240;SDS011;45058;55.772;38.224;2022-10-26T03:58:10;11.50;;;7.37;;
58240;SDS011;45058;55.772;38.224;2022-10-26T04:00:36;12.00;;;7.60;;
58240;SDS011;45058;55.772;38.224;2022-10-26T04:03:01;18.17;;;7.97;;
58240;SDS011;45058;55.772;38.224;2022-10-26T04:05:28;13.73;;;7.97;;
58240;SDS011;45058;55.772;38.224;2022-10-26T04:07:55;13.17;;;8.80;;
58240;SDS011;45058;55.772;38.224;2022-10-26T04:10:22;12.00;;;7.87;;
58240;SDS011;45058;55.772;38.224;2022-10-26T04:12:48;16.67;;;9.70;;
58240;SDS011;45058;55.772;38.224;2022-10-26T04:15:15;14.13;;;8.17;;
58240;SDS011;45058;55.772;38.224;2022-10-26T04:17:41;19.40;;;9.33;;
58240;SDS011;45058;55.772;38.224;2022-10-26T04:20:08;12.67;;;7.40;;
58240;SDS011;45058;55.772;38.224;2022-10-26T04:22:34;12.20;;;7.43;;
58240;SDS011;45058;55.772;38.224;2022-10-26T04:25:01;15.90;;;8.63;;
58240;SDS011;45058;55.772;38.224;2022-10-26T04:27:29;12.17;;;7.20;;
58240;SDS011;45058;55.772;38.224;2022-10-26T04:29:54;14.00;;;7.37;;
58240;SDS011;45058;55.772;38.224;2022-10-26T04:32:20;11.67;;;7.13;;
58240;SDS011;45058;55.772;38.224;2022-10-26T04:34:46;14.40;;;7.53;;
58240;SDS011;45058;55.772;38.224;2022-10-26T04:37:13;16.30;;;7.00;;
58240;SDS011;45058;55.772;38.224;2022-10-26T04:39:39;13.37;;;6.57;;
58240;SDS011;45058;55.772;38.224;2022-10-26T04:42:05;15.07;;;7.20;;
58240;SDS011;45058;55.772;38.224;2022-10-26T04:44:31;14.97;;;7.40;;
58240;SDS011;45058;55.772;38.224;2022-10-26T04:46:57;10.60;;;6.40;;
58240;SDS011;45058;55.772;38.224;2022-10-26T04:49:23;9.83;;;5.93;;
58240;SDS011;45058;55.772;38.224;2022-10-26T04:51:49;11.43;;;6.83;;
58240;SDS011;45058;55.772;38.224;2022-10-26T04:54:15;9.87;;;6.13;;
58240;SDS011;45058;55.772;38.224;2022-10-26T04:56:42;13.57;;;6.47;;
58240;SDS011;45058;55.772;38.224;2022-10-26T04:59:08;9.60;;;6.57;;
58240;SDS011;45058;55.772;38.224;2022-10-26T05:01:34;10.67;;;6.20;;
58240;SDS011;45058;55.772;38.224;2022-10-26T05:03:59;14.70;;;7.07;;
58240;SDS011;45058;55.772;38.224;2022-10-26T05:06:25;10.93;;;6.60;;
58240;SDS011;45058;55.772;38.224;2022-10-26T05:08:51;11.57;;;6.57;;
58240;SDS011;45058;55.772;38.224;2022-10-26T05:11:17;11.30;;;6.77;;
58240;SDS011;45058;55.772;38.224;2022-10-26T05:13:45;10.17;;;6.60;;
58240;SDS011;45058;55.772;38.224;2022-10-26T05:16:13;13.70;;;6.77;;
58240;SDS011;45058;55.772;38.224;2022-10-26T05:18:40;14.40;;;7.50;;
58240;SDS011;45058;55.772;38.224;2022-10-26T05:21:06;11.43;;;6.70;;
58240;SDS011;45058;55.772;38.224;2022-10-26T05:23:32;10.70;;;6.60;;
58240;SDS011;45058;55.772;38.224;2022-10-26T05:25:58;16.57;;;6.57;;
58240;SDS011;45058;55.772;38.224;2022-10-26T05:28:24;14.63;;;7.23;;
58240;SDS011;45058;55.772;38.224;2022-10-26T05:30:50;13.20;;;7.17;;
58240;SDS011;45058;55.772;38.224;2022-10-26T05:33:16;14.27;;;7.30;;
58240;SDS011;45058;55.772;38.224;2022-10-26T05:35:42;12.60;;;6.90;;
58240;SDS011;45058;55.772;38.224;2022-10-26T05:38:13;15.23;;;6.87;;
58240;SDS011;45058;55.772;38.224;2022-10-26T05:40:47;12.23;;;7.73;;
58240;SDS011;45058;55.772;38.224;2022-10-26T05:43:13;12.63;;;7.57;;
58240;SDS011;45058;55.772;38.224;2022-10-26T05:45:39;14.50;;;7.20;;
58240;SDS011;45058;55.772;38.224;2022-10-26T05:48:06;14.90;;;7.53;;
58240;SDS011;45058;55.772;38.224;2022-10-26T05:50:31;12.27;;;7.33;;
58240;SDS011;45058;55.772;38.224;2022-10-26T05:52:57;12.00;;;6.80;;
58240;SDS011;45058;55.772;38.224;2022-10-26T05:55:24;11.03;;;7.33;;
58240;SDS011;45058;55.772;38.224;2022-10-26T05:57:50;16.70;;;8.00;;
58240;SDS011;45058;55.772;38.224;2022-10-26T06:00:17;13.33;;;7.20;;
58240;SDS011;45058;55.772;38.224;2022-10-26T06:06:06;13.10;;;7.07;;
58240;SDS011;45058;55.772;38.224;2022-10-26T06:08:26;10.77;;;7.60;;
58240;SDS011;45058;55.772;38.224;2022-10-26T06:10:53;12.90;;;7.07;;
58240;SDS011;45058;55.772;38.224;2022-10-26T06:13:21;12.57;;;7.03;;
58240;SDS011;45058;55.772;38.224;2022-10-26T06:15:55;11.10;;;7.00;;
58240;SDS011;45058;55.772;38.224;2022-10-26T06:21:27;13.67;;;7.30;;
58240;SDS011;45058;55.772;38.224;2022-10-26T06:29:55;13.00;;;6.40;;
58240;SDS011;45058;55.772;38.224;2022-10-26T06:32:34;11.93;;;6.43;;
58240;SDS011;45058;55.772;38.224;2022-10-26T06:37:49;11.93;;;6.17;;
58240;SDS011;45058;55.772;38.224;2022-10-26T06:40:16;15.50;;;6.77;;
58240;SDS011;45058;55.772;38.224;2022-10-26T06:42:43;12.27;;;6.50;;
58240;SDS011;45058;55.772;38.224;2022-10-26T06:45:12;14.00;;;6.87;;
58240;SDS011;45058;55.772;38.224;2022-10-26T06:50:27;15.20;;;8.65;;
58240;SDS011;45058;55.772;38.224;2022-10-26T06:55:40;14.57;;;7.47;;
58240;SDS011;45058;55.772;38.224;2022-10-26T06:58:10;16.33;;;7.80;;
58240;SDS011;45058;55.772;38.224;2022-10-26T07:00:44;13.25;;;6.93;;
58240;SDS011;45058;55.772;38.224;2022-10-26T07:03:12;11.47;;;6.27;;
58240;SDS011;45058;55.772;38.224;2022-10-26T07:05:38;12.77;;;5.90;;
58240;SDS011;45058;55.772;38.224;2022-10-26T07:08:04;11.60;;;6.53;;
58240;SDS011;45058;55.772;38.224;2022-10-26T07:10:30;12.20;;;5.50;;
58240;SDS011;45058;55.772;38.224;2022-10-26T07:12:56;16.27;;;6.37;;
58240;SDS011;45058;55.772;38.224;2022-10-26T07:15:22;11.27;;;5.07;;
58240;SDS011;45058;55.772;38.224;2022-10-26T07:17:48;10.63;;;5.17;;
58240;SDS011;45058;55.772;38.224;2022-10-26T07:20:15;9.17;;;4.93;;
58240;SDS011;45058;55.772;38.224;2022-10-26T07:22:42;8.10;;;4.77;;
58240;SDS011;45058;55.772;38.224;2022-10-26T07:25:08;8.07;;;5.23;;
58240;SDS011;45058;55.772;38.224;2022-10-26T07:27:37;10.07;;;5.03;;
58240;SDS011;45058;55.772;38.224;2022-10-26T07:30:03;9.80;;;5.37;;
58240;SDS011;45058;55.772;38.224;2022-10-26T07:32:30;10.17;;;5.33;;
58240;SDS011;45058;55.772;38.224;2022-10-26T07:34:57;11.30;;;5.50;;
58240;SDS011;45058;55.772;38.224;2022-10-26T07:37:23;10.37;;;5.90;;
58240;SDS011;45058;55.772;38.224;2022-10-26T07:39:49;10.23;;;5.73;;
58240;SDS011;45058;55.772;38.224;2022-10-26T07:42:15;8.53;;;5.73;;
58240;SDS011;45058;55.772;38.224;2022-10-26T07:44:41;13.47;;;6.43;;
58240;SDS011;45058;55.772;38.224;2022-10-26T07:47:07;10.03;;;6.03;;
58240;SDS011;45058;55.772;38.224;2022-10-26T07:49:33;9.20;;;5.97;;
58240;SDS011;45058;55.772;38.224;2022-10-26T07:52:00;13.97;;;6.87;;
58240;SDS011;45058;55.772;38.224;2022-10-26T07:54:26;10.47;;;6.20;;
58240;SDS011;45058;55.772;38.224;2022-10-26T07:56:52;11.60;;;6.10;;
58240;SDS011;45058;55.772;38.224;2022-10-26T07:59:18;12.53;;;6.17;;
58240;SDS011;45058;55.772;38.224;2022-10-26T08:01:44;15.13;;;6.00;;
58240;SDS011;45058;55.772;38.224;2022-10-26T08:04:10;24.67;;;6.63;;
58240;SDS011;45058;55.772;38.224;2022-10-26T08:06:36;13.20;;;6.97;;
58240;SDS011;45058;55.772;38.224;2022-10-26T08:09:02;13.13;;;6.93;;
58240;SDS011;45058;55.772;38.224;2022-10-26T08:11:28;11.37;;;5.70;;
58240;SDS011;45058;55.772;38.224;2022-10-26T08:13:54;10.27;;;5.70;;
58240;SDS011;45058;55.772;38.224;2022-10-26T08:16:21;10.70;;;6.07;;
58240;SDS011;45058;55.772;38.224;2022-10-26T08:18:47;11.40;;;6.47;;
58240;SDS011;45058;55.772;38.224;2022-10-26T08:21:13;11.80;;;6.40;;
58240;SDS011;45058;55.772;38.224;2022-10-26T08:23:39;10.80;;;6.27;;
58240;SDS011;45058;55.772;38.224;2022-10-26T08:26:06;10.47;;;6.20;;
58240;SDS011;45058;55.772;38.224;2022-10-26T08:28:35;12.27;;;6.40;;
58240;SDS011;45058;55.772;38.224;2022-10-26T08:31:02;13.73;;;8.10;;
58240;SDS011;45058;55.772;38.224;2022-10-26T08:33:28;15.23;;;7.43;;
58240;SDS011;45058;55.772;38.224;2022-10-26T08:35:55;12.57;;;7.73;;
58240;SDS011;45058;55.772;38.224;2022-10-26T08:38:25;13.57;;;6.30;;
58240;SDS011;45058;55.772;38.224;2022-10-26T08:40:51;15.60;;;6.70;;
58240;SDS011;45058;55.772;38.224;2022-10-26T08:43:29;12.20;;;5.60;;
58240;SDS011;45058;55.772;38.224;2022-10-26T08:48:49;12.67;;;6.30;;
58240;SDS011;45058;55.772;38.224;2022-10-26T08:51:21;12.70;;;7.20;;
58240;SDS011;45058;55.772;38.224;2022-10-26T08:53:53;16.30;;;6.13;;
58240;SDS011;45058;55.772;38.224;2022-10-26T08:56:24;19.17;;;5.93;;
58240;SDS011;45058;55.772;38.224;2022-10-26T08:58:53;12.97;;;6.00;;
58240;SDS011;45058;55.772;38.224;2022-10-26T09:01:23;9.07;;;5.33;;
58240;SDS011;45058;55.772;38.224;2022-10-26T09:03:49;18.13;;;6.10;;
58240;SDS011;45058;55.772;38.224;2022-10-26T09:22:48;12.70;;;5.10;;
58240;SDS011;45058;55.772;38.224;2022-10-26T09:25:39;8.00;;;4.50;;
58240;SDS011;45058;55.772;38.224;2022-10-26T09:28:15;9.63;;;3.87;;
58240;SDS011;45058;55.772;38.224;2022-10-26T09:30:46;7.17;;;4.23;;
58240;SDS011;45058;55.772;38.224;2022-10-26T09:33:16;7.77;;;5.07;;
58240;SDS011;45058;55.772;38.224;2022-10-26T09:35:45;13.33;;;5.40;;
58240;SDS011;45058;55.772;38.224;2022-10-26T09:38:17;12.37;;;4.37;;
58240;SDS011;45058;55.772;38.224;2022-10-26T09:41:09;12.10;;;5.23;;
58240;SDS011;45058;55.772;38.224;2022-10-26T09:46:32;9.70;;;5.20;;
58240;SDS011;45058;55.772;38.224;2022-10-26T09:49:04;15.20;;;5.07;;
58240;SDS011;45058;55.772;38.224;2022-10-26T09:51:31;14.63;;;4.27;;
58240;SDS011;45058;55.772;38.224;2022-10-26T09:54:04;9.30;;;4.72;;
58240;SDS011;45058;55.772;38.224;2022-10-26T09:56:32;9.00;;;4.40;;
58240;SDS011;45058;55.772;38.224;2022-10-26T09:59:03;9.57;;;5.45;;
58240;SDS011;45058;55.772;38.224;2022-10-26T10:01:30;11.63;;;5.53;;
58240;SDS011;45058;55.772;38.224;2022-10-26T10:06:36;9.32;;;4.65;;
58240;SDS011;45058;55.772;38.224;2022-10-26T10:09:09;10.02;;;4.78;;
58240;SDS011;45058;55.772;38.224;2022-10-26T10:11:43;10.18;;;4.95;;
58240;SDS011;45058;55.772;38.224;2022-10-26T10:14:22;11.95;;;4.60;;
58240;SDS011;45058;55.772;38.224;2022-10-26T10:16:50;13.10;;;7.28;;
58240;SDS011;45058;55.772;38.224;2022-10-26T10:19:31;10.70;;;6.03;;
58240;SDS011;45058;55.772;38.224;2022-10-26T10:22:10;10.45;;;5.35;;
58240;SDS011;45058;55.772;38.224;2022-10-26T10:24:58;9.45;;;5.10;;
58240;SDS011;45058;55.772;38.224;2022-10-26T10:27:29;10.68;;;5.55;;
58240;SDS011;45058;55.772;38.224;2022-10-26T10:29:58;12.13;;;4.97;;
58240;SDS011;45058;55.772;38.224;2022-10-26T10:32:38;10.27;;;5.13;;
58240;SDS011;45058;55.772;38.224;2022-10-26T10:35:21;10.73;;;5.18;;
58240;SDS011;45058;55.772;38.224;2022-10-26T10:37:48;10.13;;;4.85;;
58240;SDS011;45058;55.772;38.224;2022-10-26T10:40:21;8.13;;;5.45;;
58240;SDS011;45058;55.772;38.224;2022-10-26T10:42:48;10.00;;;5.30;;
58240;SDS011;45058;55.772;38.224;2022-10-26T10:45:26;15.10;;;5.23;;
58240;SDS011;45058;55.772;38.224;2022-10-26T10:50:27;10.50;;;5.17;;
58240;SDS011;45058;55.772;38.224;2022-10-26T10:53:11;10.75;;;5.35;;
58240;SDS011;45058;55.772;38.224;2022-10-26T10:55:51;10.77;;;4.83;;
58240;SDS011;45058;55.772;38.224;2022-10-26T11:01:58;12.57;;;5.37;;
58240;SDS011;45058;55.772;38.224;2022-10-26T11:07:23;15.77;;;6.43;;
58240;SDS011;45058;55.772;38.224;2022-10-26T11:09:50;8.33;;;5.57;;
58240;SDS011;45058;55.772;38.224;2022-10-26T11:12:20;11.85;;;6.07;;
58240;SDS011;45058;55.772;38.224;2022-10-26T11:14:51;15.90;;;5.63;;
58240;SDS011;45058;55.772;38.224;2022-10-26T11:17:38;9.52;;;4.82;;
58240;SDS011;45058;55.772;38.224;2022-10-26T11:20:15;12.32;;;5.13;;
58240;SDS011;45058;55.772;38.224;2022-10-26T11:26:11;10.65;;;5.05;;
58240;SDS011;45058;55.772;38.224;2022-10-26T11:28:44;14.10;;;5.40;;
58240;SDS011;45058;55.772;38.224;2022-10-26T11:31:36;13.83;;;5.83;;
58240;SDS011;45058;55.772;38.224;2022-10-26T11:36:42;12.53;;;5.77;;
58240;SDS011;45058;55.772;38.224;2022-10-26T11:42:19;13.93;;;5.97;;
58240;SDS011;45058;55.772;38.224;2022-10-26T11:45:33;11.57;;;5.80;;
58240;SDS011;45058;55.772;38.224;2022-10-26T11:47:47;11.20;;;5.85;;
58240;SDS011;45058;55.772;38.224;2022-10-26T11:50:17;15.37;;;4.93;;
58240;SDS011;45058;55.772;38.224;2022-10-26T11:55:17;11.27;;;5.43;;
58240;SDS011;45058;55.772;38.224;2022-10-26T11:57:43;9.90;;;4.83;;
58240;SDS011;45058;55.772;38.224;2022-10-26T12:02:39;10.85;;;5.00;;
58240;SDS011;45058;55.772;38.224;2022-10-26T12:07:55;12.83;;;5.00;;
58240;SDS011;45058;55.772;38.224;2022-10-26T12:10:28;12.30;;;4.97;;
58240;SDS011;45058;55.772;38.224;2022-10-26T12:13:10;9.10;;;4.60;;
58240;SDS011;45058;55.772;38.224;2022-10-26T12:15:52;17.65;;;5.32;;
58240;SDS011;45058;55.772;38.224;2022-10-26T12:18:25;11.57;;;4.83;;
58240;SDS011;45058;55.772;38.224;2022-10-26T12:21:01;18.30;;;5.47;;
58240;SDS011;45058;55.772;38.224;2022-10-26T12:23:32;10.10;;;4.90;;
58240;SDS011;45058;55.772;38.224;2022-10-26T12:29:23;11.33;;;4.87;;
58240;SDS011;45058;55.772;38.224;2022-10-26T12:34:56;18.17;;;5.45;;
58240;SDS011;45058;55.772;38.224;2022-10-26T12:37:30;11.80;;;4.87;;
58240;SDS011;45058;55.772;38.224;2022-10-26T12:45:39;11.23;;;4.97;;
58240;SDS011;45058;55.772;38.224;2022-10-26T12:48:21;8.07;;;4.57;;
58240;SDS011;45058;55.772;38.224;2022-10-26T12:50:50;12.83;;;4.70;;
58240;SDS011;45058;55.772;38.224;2022-10-26T12:53:16;10.97;;;5.20;;
58240;SDS011;45058;55.772;38.224;2022-10-26T13:06:10;10.43;;;5.40;;
58240;SDS011;45058;55.772;38.224;2022-10-26T13:08:46;13.43;;;5.47;;
58240;SDS011;45058;55.772;38.224;2022-10-26T13:11:35;9.32;;;5.50;;
58240;SDS011;45058;55.772;38.224;2022-10-26T13:14:13;14.07;;;5.67;;
58240;SDS011;45058;55.772;38.224;2022-10-26T13:16:50;16.00;;;6.70;;
58240;SDS011;45058;55.772;38.224;2022-10-26T13:19:29;12.40;;;6.57;;
58240;SDS011;45058;55.772;38.224;2022-10-26T13:21:57;10.63;;;6.00;;
58240;SDS011;45058;55.772;38.224;2022-10-26T13:24:25;12.13;;;6.10;;
58240;SDS011;45058;55.772;38.224;2022-10-26T13:32:52;9.90;;;5.40;;
58240;SDS011;45058;55.772;38.224;2022-10-26T13:35:20;11.57;;;5.73;;
58240;SDS011;45058;55.772;38.224;2022-10-26T13:37:47;10.83;;;5.90;;
58240;SDS011;45058;55.772;38.224;2022-10-26T13:40:16;10.93;;;5.50;;
58240;SDS011;45058;55.772;38.224;2022-10-26T13:42:45;9.60;;;5.30;;
58240;SDS011;45058;55.772;38.224;2022-10-26T13:45:20;11.50;;;4.93;;
58240;SDS011;45058;55.772;38.224;2022-10-26T13:47:55;12.93;;;5.17;;
58240;SDS011;45058;55.772;38.224;2022-10-26T13:50:25;10.83;;;5.43;;
58240;SDS011;45058;55.772;38.224;2022-10-26T13:53:12;14.00;;;5.30;;
58240;SDS011;45058;55.772;38.224;2022-10-26T13:56:04;9.70;;;4.97;;
58240;SDS011;45058;55.772;38.224;2022-10-26T13:58:54;9.07;;;5.10;;
58240;SDS011;45058;55.772;38.224;2022-10-26T14:01:30;13.13;;;5.73;;
58240;SDS011;45058;55.772;38.224;2022-10-26T14:03:57;13.50;;;5.40;;
58240;SDS011;45058;55.772;38.224;2022-10-26T14:06:27;10.40;;;5.23;;
58240;SDS011;45058;55.772;38.224;2022-10-26T14:08:59;9.95;;;4.82;;
58240;SDS011;45058;55.772;38.224;2022-10-26T14:12:10;11.30;;;4.90;;
58240;SDS011;45058;55.772;38.224;2022-10-26T14:14:21;15.40;;;5.73;;
58240;SDS011;45058;55.772;38.224;2022-10-26T14:16:50;11.93;;;6.33;;
58240;SDS011;45058;55.772;38.224;2022-10-26T14:21:50;12.40;;;5.77;;
58240;SDS011;45058;55.772;38.224;2022-10-26T14:24:26;9.73;;;5.87;;
58240;SDS011;45058;55.772;38.224;2022-10-26T14:26:54;11.40;;;5.97;;
58240;SDS011;45058;55.772;38.224;2022-10-26T14:29:23;13.13;;;5.90;;
58240;SDS011;45058;55.772;38.224;2022-10-26T14:31:51;12.30;;;5.30;;
58240;SDS011;45058;55.772;38.224;2022-10-26T14:34:18;11.57;;;5.57;;
58240;SDS011;45058;55.772;38.224;2022-10-26T14:45:03;9.60;;;5.40;;
58240;SDS011;45058;55.772;38.224;2022-10-26T14:47:30;10.67;;;5.50;;
58240;SDS011;45058;55.772;38.224;2022-10-26T14:49:57;13.87;;;5.87;;
58240;SDS011;45058;55.772;38.224;2022-10-26T14:52:30;12.73;;;5.17;;
58240;SDS011;45058;55.772;38.224;2022-10-26T14:55:11;10.93;;;5.87;;
58240;SDS011;45058;55.772;38.224;2022-10-26T14:57:39;10.10;;;5.37;;
58240;SDS011;45058;55.772;38.224;2022-10-26T15:02:43;14.87;;;5.83;;
58240;SDS011;45058;55.772;38.224;2022-10-26T15:07:51;10.10;;;5.47;;
58240;SDS011;45058;55.772;38.224;2022-10-26T15:13:20;9.10;;;5.90;;
58240;SDS011;45058;55.772;38.224;2022-10-26T15:18:47;9.13;;;5.30;;
58240;SDS011;45058;55.772;38.224;2022-10-26T15:21:23;9.57;;;5.47;;
58240;SDS011;45058;55.772;38.224;2022-10-26T15:26:17;7.38;;;5.25;;
58240;SDS011;45058;55.772;38.224;2022-10-26T15:28:44;8.43;;;5.53;;
58240;SDS011;45058;55.772;38.224;2022-10-26T15:36:20;7.80;;;5.00;;
58240;SDS011;45058;55.772;38.224;2022-10-26T15:38:48;10.00;;;5.57;;
58240;SDS011;45058;55.772;38.224;2022-10-26T15:44:02;9.77;;;5.60;;
58240;SDS011;45058;55.772;38.224;2022-10-26T15:46:34;7.53;;;4.93;;
58240;SDS011;45058;55.772;38.224;2022-10-26T15:49:04;7.63;;;4.90;;
58240;SDS011;45058;55.772;38.224;2022-10-26T15:51:32;8.13;;;5.10;;
58240;SDS011;45058;55.772;38.224;2022-10-26T15:54:03;9.17;;;5.50;;
58240;SDS011;45058;55.772;38.224;2022-10-26T15:56:29;10.27;;;5.27;;
58240;SDS011;45058;55.772;38.224;2022-10-26T15:58:56;10.33;;;5.27;;
58240;SDS011;45058;55.772;38.224;2022-10-26T16:01:23;10.50;;;5.60;;
58240;SDS011;45058;55.772;38.224;2022-10-26T16:03:50;11.33;;;5.63;;
58240;SDS011;45058;55.772;38.224;2022-10-26T16:06:26;8.63;;;5.20;;
58240;SDS011;45058;55.772;38.224;2022-10-26T16:08:55;11.43;;;5.77;;
58240;SDS011;45058;55.772;38.224;2022-10-26T16:11:22;8.63;;;5.57;;
58240;SDS011;45058;55.772;38.224;2022-10-26T16:13:49;8.13;;;5.60;;
58240;SDS011;45058;55.772;38.224;2022-10-26T16:16:16;14.83;;;6.17;;
58240;SDS011;45058;55.772;38.224;2022-10-26T16:18:43;9.10;;;5.83;;
58240;SDS011;45058;55.772;38.224;2022-10-26T16:21:12;7.80;;;5.07;;
58240;SDS011;45058;55.772;38.224;2022-10-26T16:23:48;12.90;;;6.10;;
58240;SDS011;45058;55.772;38.224;2022-10-26T16:26:16;8.10;;;5.50;;
58240;SDS011;45058;55.772;38.224;2022-10-26T16:28:42;12.23;;;5.50;;
58240;SDS011;45058;55.772;38.224;2022-10-26T16:31:12;9.53;;;5.87;;
58240;SDS011;45058;55.772;38.224;2022-10-26T16:33:40;11.40;;;5.80;;
58240;SDS011;45058;55.772;38.224;2022-10-26T16:36:06;13.77;;;5.90;;
58240;SDS011;45058;55.772;38.224;2022-10-26T16:38:33;11.40;;;5.40;;
58240;SDS011;45058;55.772;38.224;2022-10-26T16:40:59;8.43;;;5.40;;
58240;SDS011;45058;55.772;38.224;2022-10-26T16:43:31;10.50;;;5.63;;
58240;SDS011;45058;55.772;38.224;2022-10-26T16:45:59;8.90;;;5.37;;
58240;SDS011;45058;55.772;38.224;2022-10-26T16:48:30;11.87;;;5.70;;
58240;SDS011;45058;55.772;38.224;2022-10-26T16:50:56;10.00;;;5.93;;
58240;SDS011;45058;55.772;38.224;2022-10-26T16:53:39;13.10;;;5.23;;
58240;SDS011;45058;55.772;38.224;2022-10-26T16:56:08;11.03;;;5.83;;
58240;SDS011;45058;55.772;38.224;2022-10-26T16:58:35;9.63;;;6.10;;
58240;SDS011;45058;55.772;38.224;2022-10-26T17:01:02;8.43;;;5.17;;
58240;SDS011;45058;55.772;38.224;2022-10-26T17:03:30;8.60;;;6.17;;
58240;SDS011;45058;55.772;38.224;2022-10-26T17:05:56;8.90;;;5.50;;
58240;SDS011;45058;55.772;38.224;2022-10-26T17:08:24;12.83;;;5.50;;
58240;SDS011;45058;55.772;38.224;2022-10-26T17:10:51;8.40;;;5.57;;
58240;SDS011;45058;55.772;38.224;2022-10-26T17:13:18;11.67;;;5.90;;
58240;SDS011;45058;55.772;38.224;2022-10-26T17:15:44;9.50;;;6.13;;